Time;durP1;ratioP1;P1;durP2;ratioP2;P2;SDS_P1;SDS_P2;PMS_P1;PMS_P2;Temp;Humidity;BMP_temperature;BMP_pressure;BME280_temperature;BME280_humidity;BME280_pressure;Samples;Min_cycle;Max_cycle;Signal;HPM_P1;HPM_P2
2022/10/23 00:00:21;;;;;;;;;3.50;2.00;;;;;19.12;58.96;100600.84;4963486;28;45577;-64
2022/10/23 00:02:53;;;;;;;;;3.00;3.00;;;;;19.12;58.89;100587.53;4963693;28;46615;-64
2022/10/23 00:05:20;;;;;;;;;2.75;2.75;;;;;19.12;58.85;100590.22;4963450;28;45425;-64
2022/10/23 00:07:53;;;;;;;;;4.50;4.00;;;;;19.13;59.33;100581.28;4963645;28;45406;-64
2022/10/23 00:10:20;;;;;;;;;4.25;4.25;;;;;19.14;59.44;100582.13;4963007;28;45432;-64
2022/10/23 00:12:46;;;;;;;;;4.25;4.00;;;;;19.12;59.38;100579.56;4963147;28;46440;-64
2022/10/23 00:15:13;;;;;;;;;5.00;5.00;;;;;19.13;59.69;100572.41;4963262;28;45466;-64
2022/10/23 00:17:38;;;;;;;;;7.50;4.00;;;;;19.13;59.45;100573.28;4963358;28;45315;-64
2022/10/23 00:20:05;;;;;;;;;7.75;4.25;;;;;19.14;59.09;100571.47;4963045;28;45459;-64
2022/10/23 00:22:31;;;;;;;;;5.00;5.00;;;;;19.14;59.35;100563.47;4963143;28;45410;-65
2022/10/23 00:24:56;;;;;;;;;3.25;3.25;;;;;19.10;59.54;100557.47;4963136;28;45202;-65
2022/10/23 00:27:21;;;;;;;;;4.00;4.00;;;;;19.11;59.78;100561.84;4963243;28;45278;-64
2022/10/23 00:29:47;;;;;;;;;3.50;3.25;;;;;19.12;59.60;100555.59;4963334;28;45304;-64
2022/10/23 00:32:12;;;;;;;;;2.75;2.75;;;;;19.12;59.22;100555.59;4962973;28;46274;-64
2022/10/23 00:34:37;;;;;;;;;5.00;5.00;;;;;19.10;59.77;100549.47;4963141;28;45238;-64
2022/10/23 00:37:03;;;;;;;;;4.25;4.00;;;;;19.11;59.07;100551.19;4963093;28;45403;-64
2022/10/23 00:39:28;;;;;;;;;5.00;4.50;;;;;19.10;59.72;100551.28;4963151;28;45243;-64
2022/10/23 00:41:54;;;;;;;;;3.25;3.00;;;;;19.11;59.61;100551.19;4962910;28;46052;-64
2022/10/23 00:44:19;;;;;;;;;5.00;2.00;;;;;19.12;59.81;100549.41;4963102;28;45345;-64
2022/10/23 00:46:45;;;;;;;;;5.50;5.00;;;;;19.11;59.67;100545.88;4962794;28;45389;-64
2022/10/23 00:49:10;;;;;;;;;3.75;3.75;;;;;19.11;59.36;100531.69;4962672;28;45365;-64
2022/10/23 00:51:44;;;;;;;;;3.00;3.00;;;;;19.11;59.48;100532.56;4962778;28;45359;-64
2022/10/23 00:54:12;;;;;;;;;3.00;3.00;;;;;19.11;59.78;100531.69;4961579;28;45440;-64
2022/10/23 00:56:40;;;;;;;;;3.00;3.00;;;;;19.09;59.26;100525.59;4961188;28;45350;-64
2022/10/23 00:59:06;;;;;;;;;3.50;3.50;;;;;19.09;59.68;100528.25;4962866;28;45389;-64
2022/10/23 01:01:31;;;;;;;;;2.50;2.50;;;;;19.07;59.79;100528.34;4962504;28;46140;-64
2022/10/23 01:03:57;;;;;;;;;4.00;2.75;;;;;19.09;59.74;100529.09;4962641;28;45160;-64
2022/10/23 01:06:37;;;;;;;;;5.00;3.00;;;;;19.09;59.48;100510.47;4962827;28;45234;-64
2022/10/23 01:09:19;;;;;;;;;3.75;3.75;;;;;19.05;59.61;100492.94;4962677;28;45420;-64
2022/10/23 01:11:56;;;;;;;;;2.25;2.25;;;;;19.06;59.26;100496.47;4962294;28;45522;-64
2022/10/23 01:14:27;;;;;;;;;3.00;2.50;;;;;19.06;59.75;100491.16;4962461;28;45393;-64
2022/10/23 01:17:11;;;;;;;;;3.00;1.75;;;;;19.04;59.20;100485.88;4962500;28;45349;-64
2022/10/23 01:19:45;;;;;;;;;2.25;2.25;;;;;19.04;59.35;100485.88;4961902;28;45234;-64
2022/10/23 01:22:40;;;;;;;;;2.50;2.50;;;;;19.03;59.69;100494.84;4962426;28;45166;-64
2022/10/23 01:25:44;;;;;;;;;1.00;1.00;;;;;19.02;59.51;100484.25;4954184;28;45544;-64
2022/10/23 01:28:16;;;;;;;;;2.75;2.75;;;;;18.98;59.87;100471.09;4938872;28;45569;-64
2022/10/23 01:30:43;;;;;;;;;3.00;3.00;;;;;18.98;59.70;100462.25;4962314;28;45330;-64
2022/10/23 01:33:28;;;;;;;;;1.75;1.75;;;;;18.96;59.47;100454.34;4961955;28;46230;-64
2022/10/23 01:36:03;;;;;;;;;2.00;2.00;;;;;18.96;59.54;100446.34;4960587;28;45433;-64
2022/10/23 01:39:06;;;;;;;;;2.00;2.00;;;;;18.95;59.46;100427.81;4960991;28;45334;-64
2022/10/23 01:41:45;;;;;;;;;2.00;1.25;;;;;18.96;59.68;100427.72;4958818;28;45325;-64
2022/10/23 01:44:33;;;;;;;;;3.00;3.00;;;;;18.95;59.65;100430.47;4962160;28;46175;-64
2022/10/23 01:47:02;;;;;;;;;3.50;3.00;;;;;18.93;59.95;100430.56;4961688;28;45480;-64
2022/10/23 01:49:29;;;;;;;;;2.75;2.75;;;;;18.96;59.48;100429.53;4961150;28;45435;-64
2022/10/23 01:51:58;;;;;;;;;2.75;2.75;;;;;18.97;59.79;100433.94;4960613;28;45484;-64
2022/10/23 01:54:30;;;;;;;;;2.75;2.75;;;;;18.97;59.59;100428.59;4961973;28;45307;-64
2022/10/23 01:56:58;;;;;;;;;4.50;4.25;;;;;18.97;59.65;100447.25;4961435;28;45465;-65
2022/10/23 01:59:32;;;;;;;;;8.25;5.75;;;;;18.96;59.90;100453.50;4961968;28;45177;-64
2022/10/23 02:02:00;;;;;;;;;4.50;4.00;;;;;18.95;59.69;100435.81;4961828;28;45242;-64
2022/10/23 02:04:44;;;;;;;;;4.50;3.00;;;;;18.94;59.95;100437.63;4961284;28;45331;-64
2022/10/23 02:07:10;;;;;;;;;6.25;6.25;;;;;18.94;59.62;100426.09;4961742;28;45374;-64
2022/10/23 02:09:35;;;;;;;;;6.50;4.75;;;;;18.91;59.63;100424.44;4960619;28;45320;-64
2022/10/23 02:12:30;;;;;;;;;7.50;6.00;;;;;18.91;59.96;100415.63;4961615;28;45358;-64
2022/10/23 02:15:20;;;;;;;;;5.00;5.00;;;;;18.85;59.85;100398.13;4943306;28;46688;-64
2022/10/23 02:18:27;;;;;;;;;6.25;4.75;;;;;18.88;59.64;100403.31;4961323;28;45322;-64
2022/10/23 02:20:59;;;;;;;;;5.00;5.00;;;;;18.86;60.01;100405.19;4947538;28;45452;-64
2022/10/23 02:23:42;;;;;;;;;5.00;5.00;;;;;18.88;60.02;100413.06;4960334;28;45528;-64
2022/10/23 02:26:16;;;;;;;;;4.00;4.00;;;;;18.87;59.80;100401.56;4959502;28;46929;-64
2022/10/23 02:28:50;;;;;;;;;3.50;3.00;;;;;18.87;60.03;100398.03;4961318;28;45444;-64
2022/10/23 02:31:20;;;;;;;;;4.75;3.00;;;;;18.86;59.58;100394.53;4961448;28;45353;-64
2022/10/23 02:33:46;;;;;;;;;6.75;3.00;;;;;18.85;59.78;100387.47;4961131;28;45203;-64
2022/10/23 02:36:12;;;;;;;;;3.50;3.25;;;;;18.87;60.12;100398.03;4961240;28;45362;-64
2022/10/23 02:38:40;;;;;;;;;2.00;1.00;;;;;18.88;59.75;100391.78;4961203;28;45229;-64
2022/10/23 02:41:43;;;;;;;;;3.00;3.00;;;;;18.87;59.81;100401.56;4961287;28;45444;-64
2022/10/23 02:44:45;;;;;;;;;4.00;4.00;;;;;18.82;60.01;100375.19;4959528;28;45235;-64
2022/10/23 02:47:42;;;;;;;;;3.00;2.00;;;;;18.83;60.15;100366.28;4939760;28;46467;-64
2022/10/23 02:50:28;;;;;;;;;3.25;3.00;;;;;18.82;59.90;100369.03;4960877;28;45246;-64
2022/10/23 02:52:57;;;;;;;;;3.25;3.25;;;;;18.80;60.25;100373.56;4959936;28;45501;-64
2022/10/23 02:55:38;;;;;;;;;3.00;3.00;;;;;18.81;59.92;100373.47;4959811;28;45672;-64
2022/10/23 02:58:19;;;;;;;;;2.75;2.75;;;;;18.80;60.31;100366.47;4960827;28;46390;-64
2022/10/23 03:00:52;;;;;;;;;3.75;2.75;;;;;18.74;60.05;100364.13;4960942;28;45201;-64
2022/10/23 03:03:44;;;;;;;;;2.50;1.75;;;;;18.78;60.28;100355.03;4961143;28;45376;-64
2022/10/23 03:06:10;;;;;;;;;6.50;4.75;;;;;18.79;60.43;100342.56;4956144;28;45506;-64
2022/10/23 03:08:43;;;;;;;;;2.50;2.00;;;;;18.77;60.25;100341.81;4959520;28;46035;-64
2022/10/23 03:11:08;;;;;;;;;3.00;3.00;;;;;18.79;60.67;100340.78;4960783;28;45446;-64
2022/10/23 03:13:34;;;;;;;;;3.00;3.00;;;;;18.78;60.23;100336.41;4961232;28;45368;-64
2022/10/23 03:15:59;;;;;;;;;3.50;3.50;;;;;18.79;60.71;100339.91;4959414;28;45291;-64
2022/10/23 03:18:24;;;;;;;;;3.00;3.00;;;;;18.79;60.31;100346.09;4960555;28;46210;-64
2022/10/23 03:20:49;;;;;;;;;3.50;3.50;;;;;18.78;60.14;100343.50;4960320;28;45249;-64
2022/10/23 03:23:15;;;;;;;;;3.50;3.50;;;;;18.77;60.53;100345.31;4961118;28;45291;-64
2022/10/23 03:25:40;;;;;;;;;2.50;2.50;;;;;18.76;60.27;100332.94;4958928;28;52619;-64
2022/10/23 03:28:05;;;;;;;;;2.25;2.25;;;;;18.74;60.21;100324.22;4960759;28;45256;-64
2022/10/23 03:30:31;;;;;;;;;4.25;4.25;;;;;18.75;60.71;100311.75;4960574;28;45477;-64
2022/10/23 03:32:56;;;;;;;;;3.50;3.00;;;;;18.70;60.78;100301.34;4960781;28;45310;-64
2022/10/23 03:35:21;;;;;;;;;4.50;2.75;;;;;18.74;60.83;100312.69;4960392;28;45418;-64
2022/10/23 03:37:47;;;;;;;;;4.00;3.50;;;;;18.75;60.48;100322.41;4960623;28;45409;-64
2022/10/23 03:40:12;;;;;;;;;4.00;4.00;;;;;18.75;60.91;100306.44;4958879;28;45411;-64
2022/10/23 03:42:37;;;;;;;;;3.00;3.00;;;;;18.73;60.84;100301.19;4959406;28;45327;-64
2022/10/23 03:45:03;;;;;;;;;4.75;2.75;;;;;18.73;60.99;100295.88;4959153;28;45882;-64
2022/10/23 03:47:29;;;;;;;;;4.00;4.00;;;;;18.73;60.80;100306.53;4960289;28;46113;-64
2022/10/23 03:49:54;;;;;;;;;3.75;3.75;;;;;18.70;60.97;100303.16;4960231;28;45686;-64
2022/10/23 03:52:19;;;;;;;;;4.50;3.00;;;;;18.69;60.92;100312.94;4960731;28;45211;-64
2022/10/23 03:54:45;;;;;;;;;4.00;3.00;;;;;18.71;60.85;100304.88;4960363;28;45323;-64
2022/10/23 03:57:10;;;;;;;;;4.50;4.00;;;;;18.67;61.04;100294.38;4960272;28;46196;-64
2022/10/23 03:59:36;;;;;;;;;5.00;4.00;;;;;18.70;61.14;100293.38;4960251;28;45190;-64
2022/10/23 04:02:01;;;;;;;;;5.75;4.75;;;;;18.65;61.25;100290.09;4960675;28;45161;-64
2022/10/23 04:04:26;;;;;;;;;4.50;4.00;;;;;18.67;61.07;100285.56;4960136;28;45534;-64
2022/10/23 04:06:52;;;;;;;;;7.00;5.00;;;;;18.67;60.69;100304.19;4959952;28;50340;-64
2022/10/23 04:09:17;;;;;;;;;4.00;4.00;;;;;18.68;61.05;100300.59;4958969;28;45303;-64
2022/10/23 04:11:42;;;;;;;;;7.50;3.50;;;;;18.70;60.96;100308.47;4960300;28;45404;-64
2022/10/23 04:14:12;;;;;;;;;5.00;5.00;;;;;18.67;60.91;100305.03;4962835;28;45377;-64
2022/10/23 04:16:37;;;;;;;;;4.00;4.00;;;;;18.68;61.14;100305.91;4962152;28;46329;-64
2022/10/23 04:19:03;;;;;;;;;6.00;5.25;;;;;18.70;60.88;100303.16;4963051;28;45350;-64
2022/10/23 04:21:28;;;;;;;;;4.50;4.50;;;;;18.70;61.17;100301.34;4963683;28;45226;-64
2022/10/23 04:23:53;;;;;;;;;4.50;4.00;;;;;18.68;61.22;100312.09;4963276;28;46641;-64
2022/10/23 04:26:18;;;;;;;;;5.50;4.25;;;;;18.71;61.11;100305.72;4962939;28;52950;-64
2022/10/23 04:28:44;;;;;;;;;7.75;5.75;;;;;18.71;61.03;100320.84;4963281;28;45267;-64
2022/10/23 04:31:09;;;;;;;;;4.00;4.00;;;;;18.70;61.24;100327.97;4962151;28;45175;-65
2022/10/23 04:33:34;;;;;;;;;3.50;3.50;;;;;18.69;61.50;100326.22;4961765;28;45540;-66
2022/10/23 04:36:00;;;;;;;;;3.25;3.25;;;;;18.66;61.10;100313.09;4962743;28;56496;-64
2022/10/23 04:38:25;;;;;;;;;5.75;5.00;;;;;18.68;61.24;100306.75;4963086;28;45250;-64
2022/10/23 04:40:50;;;;;;;;;5.00;5.00;;;;;18.68;61.03;100303.25;4963192;28;45456;-64
2022/10/23 04:43:16;;;;;;;;;3.25;3.25;;;;;18.71;61.14;100295.09;4963240;28;45233;-64
2022/10/23 04:45:41;;;;;;;;;4.25;4.00;;;;;18.71;61.41;100291.56;4962711;28;54201;-64
2022/10/23 04:48:06;;;;;;;;;3.00;3.00;;;;;18.69;61.57;100288.97;4962874;28;45230;-64
2022/10/23 04:50:32;;;;;;;;;4.00;3.25;;;;;18.70;61.18;100285.38;4962895;28;45251;-64
2022/10/23 04:52:57;;;;;;;;;6.75;5.00;;;;;18.68;61.32;100284.63;4962746;28;51237;-64
2022/10/23 04:55:26;;;;;;;;;5.75;3.50;;;;;18.71;61.24;100304.88;4962742;28;46089;-65
2022/10/23 04:57:51;;;;;;;;;9.25;6.00;;;;;18.69;61.34;100318.25;4961486;28;45297;-65
2022/10/23 05:00:18;;;;;;;;;7.75;7.75;;;;;18.69;61.26;100318.25;4962828;28;45258;-64
2022/10/23 05:02:43;;;;;;;;;7.75;5.75;;;;;18.67;61.04;100293.53;4962827;28;45294;-64
2022/10/23 05:05:09;;;;;;;;;5.75;5.00;;;;;18.68;61.33;100303.25;4962469;28;45467;-64
2022/10/23 05:07:36;;;;;;;;;4.25;4.00;;;;;18.70;61.65;100322.63;4962826;28;45254;-66
2022/10/23 05:10:02;;;;;;;;;4.50;4.50;;;;;18.65;61.22;100312.25;4961526;28;45291;-65
2022/10/23 05:12:28;;;;;;;;;8.25;4.25;;;;;18.67;61.38;100291.72;4962298;28;45175;-65
2022/10/23 05:14:53;;;;;;;;;4.75;4.75;;;;;18.69;61.28;100273.00;4962436;28;45321;-65
2022/10/23 05:17:32;;;;;;;;;7.50;4.50;;;;;18.68;61.12;100268.66;4962434;28;45300;-65
2022/10/23 05:20:01;;;;;;;;;7.75;6.00;;;;;18.69;61.36;100286.31;4953346;28;45495;-65
2022/10/23 05:22:31;;;;;;;;;6.25;5.75;;;;;18.71;61.20;100291.56;4962360;28;45232;-65
2022/10/23 05:24:56;;;;;;;;;5.25;5.25;;;;;18.70;61.67;100268.56;4959895;28;48485;-65
2022/10/23 05:27:22;;;;;;;;;8.00;5.00;;;;;18.71;61.32;100262.31;4962112;28;45532;-64
2022/10/23 05:29:47;;;;;;;;;6.00;5.00;;;;;18.72;61.39;100254.22;4962486;28;45335;-65
2022/10/23 05:32:15;;;;;;;;;7.00;4.00;;;;;18.73;61.10;100247.97;4962292;28;45309;-65
2022/10/23 05:34:41;;;;;;;;;5.50;5.00;;;;;18.72;61.37;100234.75;4960741;28;47204;-65
2022/10/23 05:37:09;;;;;;;;;7.00;6.00;;;;;18.74;61.58;100223.06;4960706;28;45220;-65
2022/10/23 05:39:35;;;;;;;;;6.50;6.00;;;;;18.75;61.57;100226.59;4962271;28;45297;-65
2022/10/23 05:42:00;;;;;;;;;5.00;5.00;;;;;18.74;61.78;100231.06;4961847;28;45429;-65
2022/10/23 05:44:25;;;;;;;;;5.75;4.00;;;;;18.76;61.41;100233.63;4962260;28;46138;-65
2022/10/23 05:46:51;;;;;;;;;6.25;6.25;;;;;18.76;61.63;100220.31;4961620;28;46820;-66
2022/10/23 05:49:16;;;;;;;;;6.00;6.00;;;;;18.75;61.22;100223.91;4960909;28;45341;-65
2022/10/23 05:51:41;;;;;;;;;6.50;5.00;;;;;18.75;61.39;100216.78;4961918;28;45373;-65
2022/10/23 05:54:07;;;;;;;;;5.25;5.25;;;;;18.73;61.60;100212.50;4962071;28;46114;-65
2022/10/23 05:56:40;;;;;;;;;10.50;7.50;;;;;18.77;61.40;100216.72;4960411;28;45366;-65
2022/10/23 05:59:06;;;;;;;;;7.00;6.25;;;;;18.76;62.00;100234.47;4960726;28;45490;-65
2022/10/23 06:01:32;;;;;;;;;7.75;6.75;;;;;18.77;61.68;100230.03;4961771;28;45409;-65
2022/10/23 06:03:58;;;;;;;;;7.75;6.75;;;;;18.76;61.71;100233.63;4961568;28;45279;-65
2022/10/23 06:06:24;;;;;;;;;9.50;6.50;;;;;18.77;61.45;100240.66;4960356;28;45391;-66
2022/10/23 06:08:49;;;;;;;;;8.00;7.00;;;;;18.71;61.63;100223.22;4961901;28;45235;-65
2022/10/23 06:11:15;;;;;;;;;5.25;5.25;;;;;18.74;61.64;100223.06;4961575;28;45563;-66
2022/10/23 06:13:44;;;;;;;;;5.50;4.25;;;;;18.77;61.67;100232.69;4961569;28;46819;-66
2022/10/23 06:16:13;;;;;;;;;7.50;7.50;;;;;18.76;61.66;100225.63;4961584;28;45312;-65
2022/10/23 06:18:40;;;;;;;;;7.25;5.75;;;;;18.74;61.40;100217.75;4960304;28;45309;-66
2022/10/23 06:21:06;;;;;;;;;6.00;6.00;;;;;18.73;61.55;100229.34;4961331;28;45157;-66
2022/10/23 06:23:33;;;;;;;;;9.00;6.75;;;;;18.74;61.72;100231.06;4961589;28;45252;-65
2022/10/23 06:25:59;;;;;;;;;6.25;6.25;;;;;18.72;61.44;100227.63;4961268;28;45230;-66
2022/10/23 06:28:25;;;;;;;;;6.00;6.00;;;;;18.73;61.61;100229.34;4961626;28;45319;-66
2022/10/23 06:30:50;;;;;;;;;7.25;6.75;;;;;18.71;61.66;100215.25;4960097;28;45468;-66
2022/10/23 06:33:15;;;;;;;;;7.50;6.25;;;;;18.70;61.51;100216.19;4961277;28;45382;-66
2022/10/23 06:35:41;;;;;;;;;9.00;5.50;;;;;18.71;61.78;100195.78;4959610;28;45306;-66
2022/10/23 06:38:07;;;;;;;;;6.00;5.00;;;;;18.70;61.77;100194.91;4961469;28;45317;-65
2022/10/23 06:40:33;;;;;;;;;7.00;6.00;;;;;18.69;61.75;100195.84;4961195;28;45721;-66
2022/10/23 06:42:58;;;;;;;;;5.00;5.00;;;;;18.65;62.00;100184.53;4960145;28;46579;-66
2022/10/23 06:45:23;;;;;;;;;5.25;4.75;;;;;18.68;61.77;100195.00;4961157;28;45369;-66
2022/10/23 06:47:50;;;;;;;;;9.25;6.50;;;;;18.65;61.71;100197.84;4961205;28;45417;-66
2022/10/23 06:50:16;;;;;;;;;9.25;6.25;;;;;18.64;62.03;100212.09;4960956;28;45464;-66
2022/10/23 06:52:41;;;;;;;;;6.50;5.00;;;;;18.63;61.66;100204.19;4961146;28;45416;-66
2022/10/23 06:55:07;;;;;;;;;8.00;7.00;;;;;18.60;61.86;100199.91;4960979;28;45452;-66
2022/10/23 06:57:32;;;;;;;;;7.25;6.50;;;;;18.61;61.89;100198.94;4959744;28;45208;-65
2022/10/23 06:59:58;;;;;;;;;7.25;5.25;;;;;18.62;61.85;100197.16;4960949;28;45227;-66
2022/10/23 07:02:23;;;;;;;;;5.75;5.50;;;;;18.61;61.69;100196.28;4959599;28;45934;-65
2022/10/23 07:04:48;;;;;;;;;7.00;6.00;;;;;18.61;61.86;100195.44;4960662;28;45362;-65
2022/10/23 07:07:14;;;;;;;;;9.00;7.50;;;;;18.61;61.95;100175.00;4961209;28;45207;-65
2022/10/23 07:09:39;;;;;;;;;6.25;6.25;;;;;18.61;61.64;100176.81;4959701;28;45363;-65
2022/10/23 07:12:04;;;;;;;;;10.25;7.75;;;;;18.62;62.00;100173.22;4959491;28;46994;-65
2022/10/23 07:14:31;;;;;;;;;5.00;5.00;;;;;18.62;61.86;100176.72;4960869;28;45404;-65
2022/10/23 07:16:56;;;;;;;;;8.00;7.00;;;;;18.59;61.71;100174.25;4959665;28;45384;-65
2022/10/23 07:19:22;;;;;;;;;6.00;6.00;;;;;18.58;62.06;100166.31;4960342;28;45330;-66
2022/10/23 07:21:47;;;;;;;;;7.75;6.25;;;;;18.58;61.81;100180.50;4960761;28;49860;-65
2022/10/23 07:24:12;;;;;;;;;5.25;5.25;;;;;18.58;62.07;100183.16;4960613;28;45309;-65
2022/10/23 07:26:38;;;;;;;;;7.50;7.50;;;;;18.63;61.86;100193.56;4959498;28;45495;-65
2022/10/23 07:29:04;;;;;;;;;7.00;7.00;;;;;18.62;61.71;100183.84;4960708;28;45358;-65
2022/10/23 07:31:29;;;;;;;;;9.25;7.00;;;;;18.62;61.89;100189.16;4960672;28;45290;-65
2022/10/23 07:33:54;;;;;;;;;8.00;8.00;;;;;18.64;61.79;100192.59;4960460;28;45381;-66
2022/10/23 07:36:20;;;;;;;;;4.25;4.25;;;;;18.63;62.26;100193.56;4960852;28;45148;-65
2022/10/23 07:38:45;;;;;;;;;8.50;7.50;;;;;18.64;61.92;100181.94;4960486;28;45171;-66
2022/10/23 07:41:11;;;;;;;;;9.00;6.75;;;;;18.63;61.86;100177.59;4960403;28;46294;-66
2022/10/23 07:43:36;;;;;;;;;6.75;6.50;;;;;18.63;61.67;100180.25;4960628;28;45227;-66
2022/10/23 07:46:02;;;;;;;;;6.00;6.00;;;;;18.61;62.17;100174.16;4960692;28;45150;-66
2022/10/23 07:48:28;;;;;;;;;4.25;4.00;;;;;18.62;62.35;100174.06;4961969;28;45301;-65
2022/10/23 07:50:59;;;;;;;;;6.00;6.00;;;;;18.63;62.03;100177.59;4963786;28;46009;-65
2022/10/23 07:53:25;;;;;;;;;6.25;5.00;;;;;18.62;61.80;100173.22;4962599;28;45811;-65
2022/10/23 07:55:55;;;;;;;;;8.00;7.00;;;;;18.60;62.15;100167.09;4963878;28;45311;-65
2022/10/23 07:58:20;;;;;;;;;8.25;7.00;;;;;18.64;62.04;100166.84;4963630;28;45420;-65
2022/10/23 08:00:51;;;;;;;;;7.00;5.00;;;;;18.67;61.78;100173.81;4963706;28;45229;-65
2022/10/23 08:03:17;;;;;;;;;7.75;6.50;;;;;18.68;61.72;100178.19;4962144;28;45992;-65
2022/10/23 08:05:43;;;;;;;;;5.50;4.25;;;;;18.69;62.06;100177.22;4962451;28;45298;-65
2022/10/23 08:08:08;;;;;;;;;5.00;5.00;;;;;18.68;61.71;100172.84;4963531;28;45215;-66
2022/10/23 08:10:33;;;;;;;;;8.25;7.00;;;;;18.69;62.05;100177.22;4963079;28;53960;-65
2022/10/23 08:12:59;;;;;;;;;5.50;4.75;;;;;18.74;61.71;100164.53;4963566;28;45160;-65
2022/10/23 08:15:24;;;;;;;;;8.00;6.50;;;;;18.74;61.91;100164.53;4963518;28;45361;-65
2022/10/23 08:17:50;;;;;;;;;4.50;4.50;;;;;18.80;61.93;100166.84;4961855;28;46450;-65
2022/10/23 08:20:15;;;;;;;;;5.75;5.75;;;;;18.79;62.04;100167.78;4963105;28;46250;-65
2022/10/23 08:22:40;;;;;;;;;7.25;7.25;;;;;18.75;61.84;100158.22;4963332;28;45341;-65
2022/10/23 08:25:06;;;;;;;;;6.50;6.50;;;;;18.87;61.87;100172.66;4963554;28;45535;-65
2022/10/23 08:27:31;;;;;;;;;5.00;5.00;;;;;18.89;61.99;100164.56;4963173;28;45285;-65
2022/10/23 08:29:56;;;;;;;;;8.50;6.00;;;;;18.90;61.98;100160.97;4963264;28;46277;-66
2022/10/23 08:32:22;;;;;;;;;5.25;5.25;;;;;18.91;62.23;100168.88;4963194;28;45522;-65
2022/10/23 08:34:47;;;;;;;;;7.50;6.25;;;;;18.97;62.10;100157.03;4963221;28;45495;-65
2022/10/23 08:37:12;;;;;;;;;6.75;6.75;;;;;18.98;62.00;100148.97;4962958;28;45396;-65
2022/10/23 08:39:38;;;;;;;;;9.00;7.25;;;;;19.00;62.23;100148.84;4963269;28;46052;-65
2022/10/23 08:42:03;;;;;;;;;6.75;6.75;;;;;19.08;61.78;100153.72;4962881;28;45251;-66
2022/10/23 08:44:31;;;;;;;;;7.75;7.00;;;;;19.10;62.18;100147.34;4963314;28;45337;-66
2022/10/23 08:46:58;;;;;;;;;5.50;5.50;;;;;19.15;61.99;100150.59;4962673;28;45232;-65
2022/10/23 08:49:35;;;;;;;;;7.75;7.00;;;;;19.18;62.17;100146.91;4962682;28;46028;-66
2022/10/23 08:52:06;;;;;;;;;7.00;5.25;;;;;19.20;62.09;100153.00;4961471;28;45372;-65
2022/10/23 08:54:50;;;;;;;;;6.00;6.00;;;;;19.25;62.25;100148.25;4963056;28;45312;-65
2022/10/23 08:57:20;;;;;;;;;7.50;6.25;;;;;19.27;61.59;100145.50;4962732;28;45368;-66
2022/10/23 08:59:58;;;;;;;;;6.25;5.25;;;;;19.32;62.10;100143.44;4962471;28;45671;-65
2022/10/23 09:02:23;;;;;;;;;7.25;6.00;;;;;19.37;62.26;100143.13;4962906;28;45362;-65
2022/10/23 09:04:51;;;;;;;;;5.00;4.00;;;;;19.42;61.47;100151.72;4962520;28;45468;-65
2022/10/23 09:07:45;;;;;;;;;6.50;5.25;;;;;19.49;61.49;100155.72;4961360;28;45459;-65
2022/10/23 09:10:30;;;;;;;;;6.25;5.25;;;;;19.53;61.94;100145.72;4962747;28;45401;-65
2022/10/23 09:13:37;;;;;;;;;6.50;6.50;;;;;19.59;61.90;100148.88;4962530;28;45341;-65
2022/10/23 09:16:24;;;;;;;;;5.50;5.50;;;;;19.62;61.90;100147.81;4948774;28;45383;-65
2022/10/23 09:18:50;;;;;;;;;3.50;3.50;;;;;19.72;61.76;100153.44;4962168;28;45278;-65
2022/10/23 09:21:16;;;;;;;;;6.75;5.25;;;;;19.77;61.76;100140.69;4962303;28;46219;-65
2022/10/23 09:23:41;;;;;;;;;7.25;6.50;;;;;19.85;61.73;100156.25;4962354;28;45325;-65
2022/10/23 09:26:14;;;;;;;;;4.25;4.25;;;;;19.90;61.69;100141.69;4962358;28;45387;-65
2022/10/23 09:29:01;;;;;;;;;6.00;5.00;;;;;19.97;61.49;100135.00;4962525;28;45606;-65
2022/10/23 09:31:26;;;;;;;;;5.25;5.25;;;;;20.07;60.88;100137.94;4962117;28;46409;-65
2022/10/23 09:34:00;;;;;;;;;7.00;5.25;;;;;20.18;60.89;100139.09;4944486;28;45373;-65
2022/10/23 09:36:28;;;;;;;;;6.50;5.00;;;;;20.20;61.21;100142.50;4962531;28;45326;-65
2022/10/23 09:38:56;;;;;;;;;6.25;5.00;;;;;20.27;61.34;100134.00;4961962;28;45282;-65
2022/10/23 09:41:27;;;;;;;;;7.25;6.25;;;;;20.36;60.38;100137.88;4961403;28;45534;-65
2022/10/23 09:44:16;;;;;;;;;5.75;5.00;;;;;20.42;60.66;100136.63;4961820;28;45350;-65
2022/10/23 09:46:52;;;;;;;;;9.50;6.50;;;;;20.51;60.87;100119.16;4960032;28;45202;-66
2022/10/23 09:49:28;;;;;;;;;7.25;6.25;;;;;20.58;60.50;100121.31;4961982;28;45278;-66
2022/10/23 09:52:09;;;;;;;;;5.00;5.00;;;;;20.69;60.78;100112.63;4961847;28;45382;-65
2022/10/23 09:54:46;;;;;;;;;5.00;5.00;;;;;20.80;60.84;100116.41;4961718;28;45255;-65
2022/10/23 09:57:41;;;;;;;;;3.25;3.25;;;;;20.86;60.72;100126.69;4961679;28;45408;-64
2022/10/23 10:00:12;;;;;;;;;3.00;3.00;;;;;20.94;60.09;100110.97;4961715;28;45314;-64
2022/10/23 10:02:39;;;;;;;;;4.25;4.25;;;;;21.04;60.30;100114.75;4961757;28;46131;-64
2022/10/23 10:05:27;;;;;;;;;4.00;4.00;;;;;21.14;60.06;100109.63;4960149;28;45343;-64
2022/10/23 10:08:07;;;;;;;;;5.25;4.50;;;;;21.25;59.88;100099.06;4961761;28;45231;-65
2022/10/23 10:10:47;;;;;;;;;6.25;5.00;;;;;21.38;59.75;100117.78;4960918;28;45330;-65
2022/10/23 10:13:31;;;;;;;;;3.00;3.00;;;;;21.50;59.53;100115.22;4961423;28;46400;-65
2022/10/23 10:16:09;;;;;;;;;5.50;5.25;;;;;21.55;60.21;100105.94;4961264;28;45239;-65
2022/10/23 10:19:09;;;;;;;;;4.50;4.50;;;;;21.66;59.58;100115.00;4961359;28;45411;-65
2022/10/23 10:21:42;;;;;;;;;4.00;3.50;;;;;21.68;59.26;100121.94;4949925;28;45229;-65
2022/10/23 10:24:24;;;;;;;;;4.50;3.50;;;;;21.75;59.15;100109.88;4961338;28;46246;-65
2022/10/23 10:26:54;;;;;;;;;6.75;6.00;;;;;21.86;59.42;100110.91;4961339;28;45167;-66
2022/10/23 10:29:30;;;;;;;;;5.50;5.50;;;;;21.88;59.54;100099.13;4961430;28;45321;-66
2022/10/23 10:32:04;;;;;;;;;7.25;5.75;;;;;21.88;59.08;100093.78;4961384;28;45231;-65
2022/10/23 10:35:01;;;;;;;;;4.50;4.00;;;;;21.95;59.20;100091.56;4948573;28;45488;-65
2022/10/23 10:37:51;;;;;;;;;8.75;6.25;;;;;22.00;59.18;100080.50;4961138;28;45291;-65
2022/10/23 10:40:31;;;;;;;;;4.75;4.00;;;;;22.04;58.98;100084.69;4961331;28;45311;-65
2022/10/23 10:43:12;;;;;;;;;4.00;4.00;;;;;22.07;59.25;100082.63;4961469;28;45397;-65
2022/10/23 10:45:43;;;;;;;;;8.50;6.50;;;;;22.14;58.66;100090.19;4960980;28;45435;-65
2022/10/23 10:48:35;;;;;;;;;4.50;4.25;;;;;22.16;58.87;100091.81;4959434;28;45551;-65
2022/10/23 10:51:07;;;;;;;;;6.00;4.25;;;;;22.23;58.75;100082.34;4961327;28;45385;-66
2022/10/23 10:53:57;;;;;;;;;4.00;3.00;;;;;22.31;58.45;100080.94;4943753;28;45596;-66
2022/10/23 10:56:28;;;;;;;;;4.00;4.00;;;;;22.36;58.69;100085.00;4959461;28;47697;-66
2022/10/23 10:59:00;;;;;;;;;3.75;3.75;;;;;22.44;58.54;100081.78;4961231;28;45313;-65
2022/10/23 11:01:55;;;;;;;;;2.50;2.50;;;;;22.51;58.43;100083.00;4961283;28;45447;-65
2022/10/23 11:04:56;;;;;;;;;5.00;5.00;;;;;22.55;58.48;100067.56;4959597;28;45378;-65
2022/10/23 11:07:31;;;;;;;;;6.25;4.75;;;;;22.63;58.30;100065.19;4953401;28;46441;-65
2022/10/23 11:09:59;;;;;;;;;2.00;2.00;;;;;22.71;58.02;100062.75;4960853;28;45178;-65
2022/10/23 11:12:26;;;;;;;;;7.25;5.00;;;;;22.78;58.23;100057.81;4959588;28;45272;-65
2022/10/23 11:14:52;;;;;;;;;5.50;4.50;;;;;22.88;57.90;100056.13;4960649;28;45512;-65
2022/10/23 11:17:19;;;;;;;;;4.00;3.25;;;;;22.94;57.84;100068.19;4960697;28;46387;-65
2022/10/23 11:20:08;;;;;;;;;9.00;5.00;;;;;23.02;58.04;100064.94;4960493;28;45234;-65
2022/10/23 11:22:41;;;;;;;;;5.25;5.25;;;;;23.10;57.92;100049.09;4961155;28;45460;-66
2022/10/23 11:25:29;;;;;;;;;5.75;4.00;;;;;23.22;57.76;100028.56;4964302;28;45503;-67
2022/10/23 11:28:06;;;;;;;;;5.00;3.25;;;;;23.33;57.91;100017.00;4964157;28;46569;-67
2022/10/23 11:30:46;;;;;;;;;3.75;3.50;;;;;23.37;57.59;100024.66;4964164;28;45296;-66
2022/10/23 11:33:33;;;;;;;;;6.25;5.50;;;;;23.49;57.47;100035.38;4963979;28;45352;-65
2022/10/23 11:36:30;;;;;;;;;3.50;3.00;;;;;23.56;57.52;100046.47;4964080;28;45211;-65
2022/10/23 11:39:13;;;;;;;;;4.00;4.00;;;;;23.56;57.75;100030.38;4962559;28;46086;-66
2022/10/23 11:41:49;;;;;;;;;4.25;4.25;;;;;23.72;57.51;100043.41;4963955;28;45247;-65